Time;durP1;ratioP1;P1;durP2;ratioP2;P2;SDS_P1;SDS_P2;PMS_P1;PMS_P2;Temp;Humidity;BMP_temperature;BMP_pressure;BME280_temperature;BME280_humidity;BME280_pressure;Samples;Min_cycle;Max_cycle;Signal;HPM_P1;HPM_P2
2023/04/24 00:00:05;;;;;;;1.23;0.40;;;13.30;99.90;;;;;;2092101;28;20078;-70
2023/04/24 00:01:07;;;;;;;1.10;0.45;;;13.30;99.90;;;;;;2091681;28;20060;-70
2023/04/24 00:02:10;;;;;;;0.68;0.40;;;13.30;99.90;;;;;;2094536;28;20493;-69
2023/04/24 00:03:12;;;;;;;1.25;0.60;;;13.40;99.90;;;;;;2093583;28;20493;-69
2023/04/24 00:04:13;;;;;;;1.17;0.43;;;13.30;99.90;;;;;;2094181;28;20038;-70
2023/04/24 00:05:15;;;;;;;1.88;0.70;;;13.40;99.90;;;;;;2093821;28;20119;-70
2023/04/24 00:06:16;;;;;;;0.70;0.50;;;13.30;99.90;;;;;;2093854;28;20099;-70
2023/04/24 00:07:17;;;;;;;1.75;0.50;;;13.30;99.90;;;;;;2091949;28;20018;-70
2023/04/24 00:08:18;;;;;;;0.55;0.40;;;13.30;99.90;;;;;;2092415;28;20028;-72
2023/04/24 00:09:19;;;;;;;1.10;0.70;;;13.30;99.90;;;;;;2093157;28;20357;-70
2023/04/24 00:10:19;;;;;;;1.17;0.60;;;13.30;99.90;;;;;;2091204;28;20116;-70
2023/04/24 00:11:20;;;;;;;2.40;0.70;;;13.30;99.90;;;;;;2092690;28;20617;-70
2023/04/24 00:12:21;;;;;;;0.68;0.45;;;13.30;99.90;;;;;;2091546;28;20115;-70
2023/04/24 00:13:21;;;;;;;1.17;0.68;;;13.30;99.90;;;;;;2094444;28;20017;-70
2023/04/24 00:14:22;;;;;;;1.67;0.70;;;13.30;99.90;;;;;;2092925;28;20021;-70
2023/04/24 00:15:22;;;;;;;2.40;0.55;;;13.30;99.90;;;;;;2091841;28;20029;-70
2023/04/24 00:16:23;;;;;;;0.45;0.40;;;13.30;99.90;;;;;;2092517;28;20025;-70
2023/04/24 00:17:24;;;;;;;0.52;0.43;;;13.30;99.90;;;;;;2091379;28;20035;-70
2023/04/24 00:18:24;;;;;;;0.80;0.40;;;13.30;99.90;;;;;;2092821;28;20768;-70
2023/04/24 00:19:25;;;;;;;0.57;0.50;;;13.30;99.90;;;;;;2091887;28;20032;-70
2023/04/24 00:20:25;;;;;;;1.15;0.50;;;13.30;99.90;;;;;;2091624;28;20028;-70
2023/04/24 00:21:26;;;;;;;1.58;0.93;;;13.30;99.90;;;;;;2092509;28;20059;-70
2023/04/24 00:22:28;;;;;;;0.52;0.52;;;13.30;99.90;;;;;;2095526;28;20423;-70
2023/04/24 00:23:28;;;;;;;1.85;0.52;;;13.30;99.90;;;;;;2091703;28;20441;-70
2023/04/24 00:24:29;;;;;;;0.73;0.70;;;13.30;99.90;;;;;;2091290;28;20020;-70
2023/04/24 00:25:30;;;;;;;0.63;0.50;;;13.30;99.90;;;;;;2092187;28;20120;-69
2023/04/24 00:26:30;;;;;;;0.70;0.70;;;13.20;99.90;;;;;;2090864;28;20053;-70
2023/04/24 00:27:31;;;;;;;0.88;0.60;;;13.20;99.90;;;;;;2091691;28;20024;-70
2023/04/24 00:28:31;;;;;;;0.85;0.80;;;13.20;99.90;;;;;;2092751;28;20021;-70
2023/04/24 00:29:32;;;;;;;0.77;0.60;;;13.20;99.90;;;;;;2092526;28;20029;-70
2023/04/24 00:30:32;;;;;;;1.35;0.80;;;13.20;99.90;;;;;;2091610;28;20032;-69
2023/04/24 00:31:34;;;;;;;0.75;0.70;;;13.20;99.90;;;;;;2092136;28;21093;-69
2023/04/24 00:32:35;;;;;;;2.15;0.65;;;13.10;99.90;;;;;;2093503;28;20024;-69
2023/04/24 00:33:36;;;;;;;1.20;0.60;;;13.20;99.90;;;;;;2092146;28;20219;-69
2023/04/24 00:34:36;;;;;;;0.60;0.60;;;13.10;99.90;;;;;;2091913;28;20191;-69
2023/04/24 00:35:37;;;;;;;1.45;0.88;;;13.20;99.90;;;;;;2093379;28;20024;-69
2023/04/24 00:36:37;;;;;;;0.60;0.60;;;13.10;99.90;;;;;;2092535;28;20055;-69
2023/04/24 00:37:38;;;;;;;1.77;1.10;;;13.10;99.90;;;;;;2091993;28;20029;-70
2023/04/24 00:38:38;;;;;;;1.42;0.80;;;13.10;99.90;;;;;;2091194;28;20028;-70
2023/04/24 00:39:39;;;;;;;1.42;0.80;;;13.10;99.90;;;;;;2093959;28;20040;-70
2023/04/24 00:40:39;;;;;;;1.55;0.95;;;13.10;99.90;;;;;;2092265;28;20025;-70
2023/04/24 00:41:40;;;;;;;1.38;0.98;;;13.10;99.90;;;;;;2092471;28;20504;-70
2023/04/24 00:42:41;;;;;;;1.55;0.85;;;13.10;99.90;;;;;;2093991;28;20059;-70
2023/04/24 00:43:42;;;;;;;0.80;0.75;;;13.10;99.90;;;;;;2091700;28;20032;-70
2023/04/24 00:44:42;;;;;;;1.50;0.90;;;13.00;99.90;;;;;;2094192;28;20237;-69
2023/04/24 00:45:43;;;;;;;1.27;0.88;;;13.00;99.90;;;;;;2092853;28;20039;-69
2023/04/24 00:46:44;;;;;;;2.95;1.40;;;13.00;99.90;;;;;;2090970;28;20082;-69
2023/04/24 00:47:45;;;;;;;1.63;0.90;;;13.00;99.90;;;;;;2091608;28;20028;-69
2023/04/24 00:48:46;;;;;;;1.80;1.05;;;13.00;99.90;;;;;;2092382;28;20029;-69
2023/04/24 00:49:47;;;;;;;1.67;0.70;;;13.00;99.90;;;;;;2091605;28;20047;-69
2023/04/24 00:50:47;;;;;;;1.25;0.80;;;13.00;99.90;;;;;;2092295;28;20090;-69
2023/04/24 00:51:49;;;;;;;1.85;0.93;;;12.90;99.90;;;;;;2091209;28;20381;-69
2023/04/24 00:52:50;;;;;;;2.03;1.02;;;12.90;99.90;;;;;;2089975;28;20060;-69
2023/04/24 00:53:51;;;;;;;1.38;1.10;;;13.00;99.90;;;;;;2092136;28;20523;-69
2023/04/24 00:54:52;;;;;;;0.93;0.90;;;12.90;99.90;;;;;;2093674;28;20021;-69
2023/04/24 00:55:53;;;;;;;1.55;0.65;;;12.90;99.90;;;;;;2093019;28;20042;-69
2023/04/24 00:56:54;;;;;;;1.50;0.90;;;12.90;99.90;;;;;;2092488;28;20033;-70
2023/04/24 00:57:55;;;;;;;2.00;0.90;;;12.90;99.90;;;;;;2091642;28;20021;-70
2023/04/24 00:58:56;;;;;;;2.60;0.90;;;12.90;99.90;;;;;;2093016;28;20029;-70
2023/04/24 00:59:56;;;;;;;1.08;0.95;;;12.90;99.90;;;;;;2091431;28;20032;-70
2023/04/24 01:00:58;;;;;;;2.67;1.00;;;12.80;99.90;;;;;;2091466;28;20490;-70
2023/04/24 01:01:59;;;;;;;0.93;0.85;;;12.90;99.90;;;;;;2093967;28;20101;-70
2023/04/24 01:03:03;;;;;;;0.85;0.80;;;12.80;99.90;;;;;;2091457;28;20024;-70
2023/04/24 01:04:04;;;;;;;2.10;0.88;;;12.80;99.90;;;;;;2093168;28;20487;-70
2023/04/24 01:05:05;;;;;;;1.17;1.00;;;12.80;99.90;;;;;;2090795;28;20127;-70
2023/04/24 01:06:06;;;;;;;1.40;1.10;;;12.80;99.90;;;;;;2092905;28;20119;-70
2023/04/24 01:07:10;;;;;;;1.13;1.02;;;12.80;99.90;;;;;;2090877;28;20578;-70
2023/04/24 01:08:11;;;;;;;2.33;1.30;;;12.80;99.90;;;;;;2093863;28;20128;-69
2023/04/24 01:09:14;;;;;;;1.83;1.17;;;12.80;99.90;;;;;;2090528;28;20024;-69
2023/04/24 01:10:15;;;;;;;1.20;1.10;;;12.70;99.90;;;;;;2091658;28;20037;-70
2023/04/24 01:11:16;;;;;;;1.75;0.98;;;12.70;99.90;;;;;;2089227;28;20029;-69
2023/04/24 01:12:16;;;;;;;2.88;1.15;;;12.70;99.90;;;;;;2092548;28;20028;-69
2023/04/24 01:13:18;;;;;;;3.08;1.30;;;12.70;99.90;;;;;;2092992;28;20040;-69
2023/04/24 01:14:19;;;;;;;2.40;1.10;;;12.70;99.90;;;;;;2091543;28;20040;-69
2023/04/24 01:15:20;;;;;;;1.17;1.00;;;12.70;99.90;;;;;;2092728;28;21696;-69
2023/04/24 01:16:21;;;;;;;1.60;1.10;;;12.70;99.90;;;;;;2091044;28;20234;-69
2023/04/24 01:17:21;;;;;;;1.23;1.10;;;12.60;99.90;;;;;;2092412;28;20069;-69
2023/04/24 01:18:22;;;;;;;2.00;1.20;;;12.60;99.90;;;;;;2091883;28;20083;-69
2023/04/24 01:19:23;;;;;;;1.08;1.05;;;12.60;99.90;;;;;;2090977;28;20020;-69
2023/04/24 01:20:25;;;;;;;1.33;1.23;;;12.60;99.90;;;;;;2091401;28;21131;-69
2023/04/24 01:21:29;;;;;;;1.15;1.00;;;12.60;99.90;;;;;;2091268;28;20036;-69
2023/04/24 01:22:30;;;;;;;1.23;1.15;;;12.60;99.90;;;;;;2092146;28;20090;-70
2023/04/24 01:23:30;;;;;;;3.45;1.08;;;12.60;99.90;;;;;;2094147;28;20033;-70
2023/04/24 01:24:31;;;;;;;1.10;1.00;;;12.50;99.90;;;;;;2091001;28;20025;-70
2023/04/24 01:25:32;;;;;;;2.03;1.08;;;12.50;99.90;;;;;;2090785;28;20051;-70
2023/04/24 01:26:32;;;;;;;1.92;1.50;;;12.50;99.90;;;;;;2092189;28;20012;-70
2023/04/24 01:27:33;;;;;;;1.80;1.40;;;12.50;99.90;;;;;;2091382;28;20127;-70
2023/04/24 01:28:34;;;;;;;1.92;1.50;;;12.50;99.90;;;;;;2091866;28;20503;-70
2023/04/24 01:29:35;;;;;;;1.75;1.50;;;12.50;99.90;;;;;;2091486;28;20024;-69
2023/04/24 01:30:36;;;;;;;1.70;1.60;;;12.40;99.90;;;;;;2089209;28;20107;-69
2023/04/24 01:31:37;;;;;;;2.50;1.33;;;12.50;99.90;;;;;;2092288;28;20029;-69
2023/04/24 01:32:38;;;;;;;3.15;1.52;;;12.40;99.90;;;;;;2091522;28;20020;-69
2023/04/24 01:33:40;;;;;;;3.10;1.65;;;12.40;99.90;;;;;;2090335;28;20036;-69
2023/04/24 01:34:41;;;;;;;2.50;1.67;;;12.40;99.90;;;;;;2091297;28;20021;-69
2023/04/24 01:35:42;;;;;;;1.83;1.40;;;12.40;99.90;;;;;;2092234;28;20035;-69
2023/04/24 01:36:45;;;;;;;2.08;1.52;;;12.40;99.90;;;;;;2090537;28;20040;-69
2023/04/24 01:37:46;;;;;;;2.58;1.55;;;12.40;99.90;;;;;;2089934;28;20539;-69
2023/04/24 01:38:46;;;;;;;1.60;1.48;;;12.40;99.90;;;;;;2090807;28;20199;-70
2023/04/24 01:39:47;;;;;;;1.77;1.67;;;12.40;99.90;;;;;;2092582;28;20032;-70
2023/04/24 01:40:48;;;;;;;2.33;1.35;;;12.40;99.90;;;;;;2090017;28;20068;-70
2023/04/24 01:41:50;;;;;;;1.65;1.50;;;12.40;99.90;;;;;;2092232;28;20039;-69
2023/04/24 01:42:51;;;;;;;2.25;1.58;;;12.40;99.90;;;;;;2093623;28;20081;-69
2023/04/24 01:43:52;;;;;;;4.93;2.05;;;12.40;99.90;;;;;;2091134;28;20028;-69
2023/04/24 01:44:53;;;;;;;2.55;1.83;;;12.40;99.90;;;;;;2093731;28;20032;-69
2023/04/24 01:45:54;;;;;;;1.98;1.60;;;12.40;99.90;;;;;;2092141;28;20024;-69
2023/04/24 01:46:55;;;;;;;2.78;1.95;;;12.40;99.90;;;;;;2092691;28;20032;-69
2023/04/24 01:47:56;;;;;;;3.10;2.20;;;12.40;99.90;;;;;;2092621;28;20040;-69
2023/04/24 01:48:59;;;;;;;3.28;2.25;;;12.30;99.90;;;;;;2093798;28;20515;-70
2023/04/24 01:50:00;;;;;;;2.88;2.28;;;12.30;99.90;;;;;;2093013;28;20400;-70
2023/04/24 01:51:01;;;;;;;2.67;1.83;;;12.30;99.90;;;;;;2092277;28;20056;-69
2023/04/24 01:52:01;;;;;;;3.22;2.25;;;12.30;99.90;;;;;;2095069;28;20028;-69
2023/04/24 01:53:02;;;;;;;2.95;2.15;;;12.30;99.90;;;;;;2092657;28;20395;-69
2023/04/24 01:54:02;;;;;;;3.72;2.97;;;12.30;99.90;;;;;;2095024;28;20024;-69
2023/04/24 01:55:04;;;;;;;3.65;2.25;;;12.30;99.90;;;;;;2093548;28;20027;-69
2023/04/24 01:56:06;;;;;;;2.33;2.10;;;12.30;99.90;;;;;;2093891;28;20543;-69
2023/04/24 01:57:07;;;;;;;3.10;2.22;;;12.30;99.90;;;;;;2094992;28;20021;-69
2023/04/24 01:58:08;;;;;;;2.70;2.10;;;12.30;99.90;;;;;;2094722;28;20038;-70
2023/04/24 01:59:10;;;;;;;2.53;2.20;;;12.30;99.90;;;;;;2094448;28;20047;-70
2023/04/24 02:00:11;;;;;;;2.58;2.38;;;12.30;99.90;;;;;;2095266;28;20476;-69
2023/04/24 02:01:18;;;;;;;2.85;2.17;;;12.30;99.90;;;;;;2093652;28;20369;-69
2023/04/24 02:02:21;;;;;;;2.75;2.30;;;12.20;99.90;;;;;;2094205;28;20021;-69
2023/04/24 02:03:21;;;;;;;2.45;2.20;;;12.20;99.90;;;;;;2092180;28;20032;-69
2023/04/24 02:04:22;;;;;;;3.60;2.17;;;12.20;99.90;;;;;;2095553;28;20034;-69
2023/04/24 02:05:22;;;;;;;3.03;2.25;;;12.20;99.90;;;;;;2095709;28;20028;-69
2023/04/24 02:06:23;;;;;;;2.72;2.25;;;12.20;99.90;;;;;;2091587;28;20033;-69
2023/04/24 02:07:24;;;;;;;4.20;2.63;;;12.20;99.90;;;;;;2094696;28;20638;-69
2023/04/24 02:08:24;;;;;;;2.72;2.20;;;12.20;99.90;;;;;;2092393;28;20340;-69
2023/04/24 02:09:25;;;;;;;2.65;2.17;;;12.20;99.90;;;;;;2093279;28;20021;-69
2023/04/24 02:10:26;;;;;;;2.67;2.20;;;12.20;99.90;;;;;;2094843;28;20029;-69
2023/04/24 02:11:26;;;;;;;2.42;2.22;;;12.20;99.90;;;;;;2092950;28;20415;-69
2023/04/24 02:12:27;;;;;;;3.28;2.45;;;12.20;99.90;;;;;;2093250;28;20031;-69
2023/04/24 02:13:28;;;;;;;2.90;2.25;;;12.20;99.90;;;;;;2093525;28;20393;-69
2023/04/24 02:14:28;;;;;;;2.80;2.28;;;12.10;99.90;;;;;;2094963;28;20024;-69
2023/04/24 02:15:29;;;;;;;2.97;2.30;;;12.10;99.90;;;;;;2092423;28;20063;-69
2023/04/24 02:16:32;;;;;;;3.63;2.40;;;12.10;99.90;;;;;;2092713;28;20763;-69
2023/04/24 02:17:33;;;;;;;3.85;2.60;;;12.10;99.90;;;;;;2091704;28;20108;-69
2023/04/24 02:18:33;;;;;;;4.00;2.40;;;12.10;99.90;;;;;;2095379;28;20043;-69
2023/04/24 02:19:34;;;;;;;2.83;2.33;;;12.10;99.90;;;;;;2092967;28;20590;-69
2023/04/24 02:20:35;;;;;;;2.70;2.50;;;12.10;99.90;;;;;;2093065;28;20465;-69
2023/04/24 02:21:35;;;;;;;3.20;2.50;;;12.10;99.90;;;;;;2094588;28;20130;-69
2023/04/24 02:22:36;;;;;;;2.95;2.60;;;12.10;99.90;;;;;;2092387;28;20090;-69
2023/04/24 02:23:36;;;;;;;4.38;2.88;;;12.00;99.90;;;;;;2091354;28;20032;-69
2023/04/24 02:24:38;;;;;;;3.85;3.10;;;12.00;99.90;;;;;;2095637;28;20021;-69
2023/04/24 02:25:38;;;;;;;4.55;2.90;;;12.00;99.90;;;;;;2094160;28;20028;-69
2023/04/24 02:26:39;;;;;;;3.80;3.10;;;12.00;99.90;;;;;;2093246;28;20041;-69
2023/04/24 02:27:39;;;;;;;3.25;2.90;;;11.90;99.90;;;;;;2093827;28;20200;-69
2023/04/24 02:28:40;;;;;;;3.75;3.13;;;11.90;99.90;;;;;;2092645;28;20028;-69
2023/04/24 02:29:40;;;;;;;4.70;4.07;;;11.90;99.90;;;;;;2093266;28;20491;-69
2023/04/24 02:30:41;;;;;;;5.03;3.70;;;11.90;99.90;;;;;;2092229;28;20403;-69
2023/04/24 02:31:42;;;;;;;5.63;4.13;;;11.80;99.90;;;;;;2093124;28;20028;-69
2023/04/24 02:32:42;;;;;;;4.65;3.92;;;11.80;99.90;;;;;;2092718;28;20415;-69
2023/04/24 02:33:43;;;;;;;6.13;5.07;;;11.80;99.90;;;;;;2093341;28;20574;-69
2023/04/24 02:34:43;;;;;;;4.32;3.92;;;11.80;99.90;;;;;;2090942;28;20086;-69
2023/04/24 02:35:44;;;;;;;5.57;4.50;;;11.80;99.90;;;;;;2093098;28;20395;-69
2023/04/24 02:36:44;;;;;;;6.05;4.32;;;11.70;99.90;;;;;;2091984;28;20104;-69
2023/04/24 02:37:45;;;;;;;5.00;4.47;;;11.80;99.90;;;;;;2092089;28;20513;-69
2023/04/24 02:38:45;;;;;;;5.68;4.68;;;11.70;99.90;;;;;;2094287;28;20038;-69
2023/04/24 02:39:46;;;;;;;5.60;4.53;;;11.70;99.90;;;;;;2091607;28;20040;-69
2023/04/24 02:40:46;;;;;;;5.45;4.93;;;11.70;99.90;;;;;;2091185;28;20033;-69
2023/04/24 02:41:47;;;;;;;7.07;5.22;;;11.70;99.90;;;;;;2092663;28;20124;-69
2023/04/24 02:42:47;;;;;;;6.57;4.95;;;11.70;99.90;;;;;;2092850;28;20033;-70
2023/04/24 02:43:48;;;;;;;6.18;5.43;;;11.70;99.90;;;;;;2093291;28;20067;-70
2023/04/24 02:44:50;;;;;;;6.25;5.53;;;11.70;99.90;;;;;;2095404;28;20029;-69
2023/04/24 02:45:51;;;;;;;5.13;4.63;;;11.70;99.90;;;;;;2092675;28;20097;-69
2023/04/24 02:46:51;;;;;;;9.57;5.30;;;11.70;99.90;;;;;;2094473;28;20081;-69
2023/04/24 02:47:52;;;;;;;6.55;5.43;;;11.70;99.90;;;;;;2092090;28;20032;-69
2023/04/24 02:48:52;;;;;;;10.85;5.97;;;11.60;99.90;;;;;;2094105;28;20028;-69
2023/04/24 02:49:53;;;;;;;7.45;5.25;;;11.60;99.90;;;;;;2092782;28;20024;-69
2023/04/24 02:50:54;;;;;;;8.40;6.50;;;11.60;99.90;;;;;;2094416;28;20040;-69
2023/04/24 02:51:54;;;;;;;7.80;6.57;;;11.60;99.90;;;;;;2093566;28;20052;-69
2023/04/24 02:52:55;;;;;;;9.07;6.60;;;11.60;99.90;;;;;;2093310;28;20035;-69
2023/04/24 02:53:55;;;;;;;9.52;6.72;;;11.60;99.90;;;;;;2092970;28;20519;-69
2023/04/24 02:54:56;;;;;;;7.85;6.15;;;11.50;99.90;;;;;;2094722;28;20029;-69
2023/04/24 02:55:57;;;;;;;8.63;6.80;;;11.50;99.90;;;;;;2091077;28;20034;-69
2023/04/24 02:56:57;;;;;;;9.40;6.15;;;11.50;99.90;;;;;;2094083;28;20025;-69
2023/04/24 02:57:58;;;;;;;8.27;6.75;;;11.50;99.90;;;;;;2092968;28;20036;-69
2023/04/24 02:58:58;;;;;;;10.13;7.18;;;11.50;99.90;;;;;;2095998;28;20020;-69
2023/04/24 02:59:59;;;;;;;8.98;7.40;;;11.50;99.90;;;;;;2093164;28;20104;-69
2023/04/24 03:01:00;;;;;;;10.07;7.43;;;11.50;99.90;;;;;;2094509;28;20035;-69
2023/04/24 03:02:00;;;;;;;10.57;6.90;;;11.50;99.90;;;;;;2095070;28;20032;-70
2023/04/24 03:03:01;;;;;;;10.48;7.30;;;11.50;99.90;;;;;;2091627;28;20021;-70
2023/04/24 03:04:03;;;;;;;9.40;6.70;;;11.50;99.90;;;;;;2094349;28;20372;-70
2023/04/24 03:05:04;;;;;;;8.40;7.35;;;11.50;99.90;;;;;;2093737;28;20028;-69
2023/04/24 03:06:05;;;;;;;11.02;7.38;;;11.50;99.90;;;;;;2092829;28;20047;-69
2023/04/24 03:07:06;;;;;;;9.73;7.72;;;11.50;99.90;;;;;;2093295;28;20055;-69
2023/04/24 03:08:07;;;;;;;9.85;7.85;;;11.50;99.90;;;;;;2090972;28;20025;-69
2023/04/24 03:09:07;;;;;;;12.60;8.57;;;11.50;99.90;;;;;;2092839;28;20078;-69
2023/04/24 03:10:08;;;;;;;9.23;7.95;;;11.50;99.90;;;;;;2090743;28;20060;-69
2023/04/24 03:11:09;;;;;;;8.52;7.15;;;11.50;99.90;;;;;;2094290;28;20025;-69
2023/04/24 03:12:09;;;;;;;8.82;7.25;;;11.50;99.90;;;;;;2091859;28;20468;-69
2023/04/24 03:13:10;;;;;;;10.50;8.23;;;11.60;99.90;;;;;;2094261;28;20024;-69
2023/04/24 03:14:10;;;;;;;11.20;7.60;;;11.60;99.90;;;;;;2094646;28;20133;-69
2023/04/24 03:15:11;;;;;;;10.80;7.78;;;11.60;99.90;;;;;;2094461;28;20029;-69
2023/04/24 03:16:11;;;;;;;12.13;9.77;;;11.60;99.90;;;;;;2092764;28;20122;-70
2023/04/24 03:17:12;;;;;;;10.73;8.07;;;11.60;99.90;;;;;;2091247;28;20031;-70
2023/04/24 03:18:13;;;;;;;10.77;8.38;;;11.60;99.90;;;;;;2094193;28;20036;-70
2023/04/24 03:19:13;;;;;;;12.27;8.63;;;11.60;99.90;;;;;;2095051;28;20432;-70
2023/04/24 03:20:14;;;;;;;12.13;8.90;;;11.60;99.90;;;;;;2090960;28;20039;-69
2023/04/24 03:21:15;;;;;;;12.32;9.45;;;11.60;99.90;;;;;;2093014;28;20484;-69
2023/04/24 03:22:15;;;;;;;10.98;8.15;;;11.60;99.90;;;;;;2093178;28;20119;-69
2023/04/24 03:23:16;;;;;;;9.07;8.18;;;11.60;99.90;;;;;;2093850;28;20025;-69
2023/04/24 03:24:16;;;;;;;12.05;8.50;;;11.60;99.90;;;;;;2093575;28;20047;-69
2023/04/24 03:25:17;;;;;;;12.15;8.50;;;11.60;99.90;;;;;;2094030;28;20031;-69
2023/04/24 03:26:18;;;;;;;10.30;8.18;;;11.60;99.90;;;;;;2091002;28;20599;-69
2023/04/24 03:27:18;;;;;;;10.52;8.10;;;11.60;99.90;;;;;;2091047;28;20075;-69
2023/04/24 03:28:19;;;;;;;10.32;8.23;;;11.60;99.90;;;;;;2091299;28;20143;-69
2023/04/24 03:29:20;;;;;;;9.18;8.35;;;11.60;99.90;;;;;;2091764;28;20017;-69
2023/04/24 03:30:21;;;;;;;11.23;8.52;;;11.60;99.90;;;;;;2091071;28;20029;-69
2023/04/24 03:31:21;;;;;;;10.98;8.10;;;11.60;99.90;;;;;;2092884;28;20467;-69
2023/04/24 03:32:22;;;;;;;12.20;8.23;;;11.60;99.90;;;;;;2093927;28;20024;-69
2023/04/24 03:33:23;;;;;;;10.27;8.20;;;11.60;99.90;;;;;;2089334;28;20100;-69
2023/04/24 03:34:23;;;;;;;10.98;8.15;;;11.70;99.90;;;;;;2091809;28;20032;-69
2023/04/24 03:35:24;;;;;;;8.52;7.63;;;11.70;99.90;;;;;;2092529;28;20439;-69
2023/04/24 03:36:25;;;;;;;8.95;7.97;;;11.60;99.90;;;;;;2090594;28;20033;-69
2023/04/24 03:37:26;;;;;;;11.77;8.57;;;11.70;99.90;;;;;;2091571;28;20028;-69
2023/04/24 03:38:26;;;;;;;11.00;9.05;;;11.70;99.90;;;;;;2092557;28;20535;-69
2023/04/24 03:39:27;;;;;;;11.55;8.63;;;11.70;99.90;;;;;;2093220;28;20135;-69
2023/04/24 03:40:29;;;;;;;16.15;9.30;;;11.70;99.90;;;;;;2092823;28;20605;-69
2023/04/24 03:41:30;;;;;;;14.07;9.35;;;11.70;99.90;;;;;;2093247;28;20095;-69
2023/04/24 03:42:30;;;;;;;10.95;7.95;;;11.70;99.90;;;;;;2093810;28;20373;-69
2023/04/24 03:43:33;;;;;;;12.98;9.18;;;11.70;99.90;;;;;;2092673;28;20032;-69
2023/04/24 03:44:33;;;;;;;10.68;9.00;;;11.70;99.90;;;;;;2091681;28;20024;-69
2023/04/24 03:45:34;;;;;;;12.93;9.05;;;11.70;99.90;;;;;;2093110;28;20023;-69
2023/04/24 03:46:35;;;;;;;13.07;8.70;;;11.80;99.90;;;;;;2093015;28;20025;-70
2023/04/24 03:47:35;;;;;;;10.68;8.52;;;11.80;99.90;;;;;;2094565;28;20035;-70
2023/04/24 03:48:36;;;;;;;11.68;8.70;;;11.80;99.90;;;;;;2091429;28;20025;-70
2023/04/24 03:49:36;;;;;;;13.05;8.85;;;11.80;99.90;;;;;;2092239;28;20028;-69
2023/04/24 03:50:37;;;;;;;12.30;8.57;;;11.70;99.90;;;;;;2091270;28;20032;-69
2023/04/24 03:51:37;;;;;;;9.15;8.25;;;11.80;99.90;;;;;;2094260;28;20021;-69
2023/04/24 03:52:38;;;;;;;14.43;9.55;;;11.80;99.90;;;;;;2095690;28;20029;-69
2023/04/24 03:53:38;;;;;;;10.25;8.57;;;11.80;99.90;;;;;;2094830;28;20119;-69
2023/04/24 03:54:39;;;;;;;9.70;8.70;;;11.80;99.90;;;;;;2092319;28;20024;-69
2023/04/24 03:55:40;;;;;;;13.55;8.90;;;11.80;99.90;;;;;;2092032;28;20025;-69
2023/04/24 03:56:40;;;;;;;13.55;8.98;;;11.80;99.90;;;;;;2091332;28;20919;-69
2023/04/24 03:57:41;;;;;;;11.63;9.00;;;11.70;99.90;;;;;;2094300;28;20555;-69
2023/04/24 03:58:42;;;;;;;16.73;10.20;;;11.70;99.90;;;;;;2093200;28;20028;-69
2023/04/24 03:59:43;;;;;;;10.27;7.80;;;11.80;99.90;;;;;;2092189;28;20116;-69
2023/04/24 04:00:44;;;;;;;13.43;8.93;;;11.70;99.90;;;;;;2091219;28;20044;-69
2023/04/24 04:01:45;;;;;;;12.25;9.20;;;11.70;99.90;;;;;;2091692;28;20055;-70
2023/04/24 04:02:46;;;;;;;12.00;9.23;;;11.80;99.90;;;;;;2092912;28;20021;-70
2023/04/24 04:03:47;;;;;;;11.32;9.65;;;11.80;99.90;;;;;;2092807;28;20027;-70
2023/04/24 04:04:47;;;;;;;13.23;8.90;;;11.80;99.90;;;;;;2092123;28;20027;-70
2023/04/24 04:05:48;;;;;;;11.35;8.52;;;11.80;99.90;;;;;;2092192;28;20498;-70
2023/04/24 04:06:49;;;;;;;10.48;9.18;;;11.80;99.90;;;;;;2091404;28;20093;-69
2023/04/24 04:07:49;;;;;;;10.27;8.93;;;11.80;99.90;;;;;;2093133;28;20201;-69
2023/04/24 04:08:50;;;;;;;12.23;9.15;;;11.80;99.90;;;;;;2092667;28;20028;-69
2023/04/24 04:09:50;;;;;;;11.45;9.32;;;11.80;99.90;;;;;;2094667;28;20025;-69
2023/04/24 04:10:51;;;;;;;15.20;9.85;;;11.80;99.90;;;;;;2095153;28;20025;-69
2023/04/24 04:11:51;;;;;;;12.70;9.27;;;11.80;99.90;;;;;;2092538;28;20127;-69
2023/04/24 04:12:52;;;;;;;11.23;9.18;;;11.80;99.90;;;;;;2091916;28;20099;-69
2023/04/24 04:13:52;;;;;;;14.10;9.00;;;11.80;99.90;;;;;;2092715;28;20029;-69
2023/04/24 04:14:53;;;;;;;13.52;9.57;;;11.80;99.90;;;;;;2092216;28;20035;-69
2023/04/24 04:15:53;;;;;;;10.50;8.80;;;11.80;99.90;;;;;;2090324;28;20039;-69
2023/04/24 04:16:54;;;;;;;9.98;8.93;;;11.80;99.90;;;;;;2091146;28;20032;-69
2023/04/24 04:17:55;;;;;;;14.70;9.52;;;11.80;99.90;;;;;;2091433;28;20452;-69
2023/04/24 04:18:55;;;;;;;11.00;9.52;;;11.80;99.90;;;;;;2093529;28;20583;-69
2023/04/24 04:19:57;;;;;;;10.73;8.55;;;11.80;99.90;;;;;;2089892;28;20028;-69
2023/04/24 04:20:57;;;;;;;12.95;9.02;;;11.80;99.90;;;;;;2091436;28;20388;-69
2023/04/24 04:21:58;;;;;;;12.77;9.55;;;11.80;99.90;;;;;;2090380;28;20020;-69
2023/04/24 04:22:59;;;;;;;12.80;9.82;;;11.80;99.90;;;;;;2093234;28;20024;-69
2023/04/24 04:24:00;;;;;;;13.68;9.32;;;11.80;99.90;;;;;;2092506;28;20033;-70
2023/04/24 04:25:00;;;;;;;11.70;9.25;;;11.80;99.90;;;;;;2089893;28;20052;-69
2023/04/24 04:26:02;;;;;;;15.57;9.55;;;11.80;99.90;;;;;;2091376;28;20021;-69
2023/04/24 04:27:03;;;;;;;17.98;9.73;;;11.80;99.90;;;;;;2092415;28;20024;-69
2023/04/24 04:28:03;;;;;;;13.63;9.88;;;11.80;99.90;;;;;;2091294;28;20469;-69
2023/04/24 04:29:04;;;;;;;13.95;9.85;;;11.80;99.90;;;;;;2092262;28;20433;-70
2023/04/24 04:30:05;;;;;;;10.88;9.13;;;11.80;99.90;;;;;;2090072;28;20044;-70
2023/04/24 04:31:07;;;;;;;12.02;8.98;;;11.80;99.90;;;;;;2090020;28;20094;-70
2023/04/24 04:32:08;;;;;;;12.27;9.18;;;11.80;99.90;;;;;;2090864;28;20020;-69
2023/04/24 04:33:08;;;;;;;10.90;9.50;;;11.80;99.90;;;;;;2091369;28;20028;-69
2023/04/24 04:34:09;;;;;;;12.27;9.20;;;11.80;99.90;;;;;;2091458;28;20373;-69
2023/04/24 04:35:10;;;;;;;12.35;9.52;;;11.80;99.90;;;;;;2091236;28;20030;-70
2023/04/24 04:36:11;;;;;;;12.27;9.20;;;11.80;99.90;;;;;;2089066;28;20025;-70
2023/04/24 04:37:13;;;;;;;11.98;9.43;;;11.80;99.90;;;;;;2091986;28;20108;-69
2023/04/24 04:38:14;;;;;;;15.02;9.98;;;11.80;99.90;;;;;;2092695;28;20129;-70
2023/04/24 04:39:16;;;;;;;13.70;9.32;;;11.80;99.90;;;;;;2091547;28;20031;-69
2023/04/24 04:40:17;;;;;;;12.63;9.20;;;11.80;99.90;;;;;;2091752;28;20017;-69
2023/04/24 04:41:18;;;;;;;13.68;9.20;;;11.80;99.90;;;;;;2092803;28;20032;-69
2023/04/24 04:42:18;;;;;;;11.88;8.73;;;11.80;99.90;;;;;;2093834;28;20028;-69
2023/04/24 04:43:19;;;;;;;10.75;8.90;;;11.80;99.90;;;;;;2091115;28;20469;-69
2023/04/24 04:44:19;;;;;;;11.00;8.90;;;11.70;99.90;;;;;;2091586;28;20028;-69
2023/04/24 04:45:20;;;;;;;9.98;8.98;;;11.80;99.90;;;;;;2092699;28;20107;-69
2023/04/24 04:46:21;;;;;;;12.23;9.40;;;11.70;99.90;;;;;;2093088;28;20037;-69
2023/04/24 04:47:23;;;;;;;10.93;9.15;;;11.80;99.90;;;;;;2093106;28;20056;-69
2023/04/24 04:48:24;;;;;;;11.00;8.43;;;11.70;99.90;;;;;;2092364;28;20027;-69
2023/04/24 04:49:24;;;;;;;11.55;8.77;;;11.80;99.90;;;;;;2089301;28;20020;-69
2023/04/24 04:50:25;;;;;;;9.85;8.82;;;11.80;99.90;;;;;;2092444;28;20032;-69
2023/04/24 04:51:25;;;;;;;11.18;9.52;;;11.80;99.90;;;;;;2093365;28;20036;-69
2023/04/24 04:52:27;;;;;;;10.02;8.30;;;11.80;99.90;;;;;;2090657;28;20048;-69
2023/04/24 04:53:27;;;;;;;14.40;9.68;;;11.80;99.90;;;;;;2090534;28;20021;-69
2023/04/24 04:54:28;;;;;;;9.70;8.70;;;11.80;99.90;;;;;;2090297;28;21131;-69
2023/04/24 04:55:28;;;;;;;12.68;8.73;;;11.80;99.90;;;;;;2092169;28;20033;-69
2023/04/24 04:56:29;;;;;;;10.52;9.52;;;11.80;99.90;;;;;;2092314;28;20035;-69
2023/04/24 04:57:30;;;;;;;12.50;9.40;;;11.80;99.90;;;;;;2093109;28;20020;-69
2023/04/24 04:58:31;;;;;;;10.48;8.85;;;11.80;99.90;;;;;;2090859;28;20025;-69
2023/04/24 04:59:31;;;;;;;13.45;9.57;;;11.80;99.90;;;;;;2090994;28;20025;-69
2023/04/24 05:00:35;;;;;;;14.35;8.77;;;11.80;99.90;;;;;;2090695;28;20031;-69
2023/04/24 05:01:36;;;;;;;10.95;9.40;;;11.80;99.90;;;;;;2091576;28;20017;-69
2023/04/24 05:02:36;;;;;;;10.60;9.50;;;11.80;99.90;;;;;;2092004;28;20110;-69
2023/04/24 05:03:37;;;;;;;11.05;9.02;;;11.80;99.90;;;;;;2092620;28;20016;-69
2023/04/24 05:04:37;;;;;;;10.50;9.40;;;11.80;99.90;;;;;;2091145;28;20024;-69
2023/04/24 05:05:40;;;;;;;11.98;9.10;;;11.90;99.90;;;;;;2090525;28;20036;-69
2023/04/24 05:06:40;;;;;;;13.38;9.23;;;11.80;99.90;;;;;;2093694;28;20024;-69
2023/04/24 05:07:41;;;;;;;9.52;8.52;;;11.80;99.90;;;;;;2091665;28;20162;-69
2023/04/24 05:08:41;;;;;;;10.40;8.68;;;11.80;99.90;;;;;;2090923;28;20037;-69
2023/04/24 05:09:42;;;;;;;11.40;9.23;;;11.80;99.90;;;;;;2091174;28;20121;-69
2023/04/24 05:10:43;;;;;;;9.85;8.82;;;11.80;99.90;;;;;;2089895;28;20020;-69
2023/04/24 05:11:43;;;;;;;13.57;9.25;;;11.80;99.90;;;;;;2091534;28;20475;-69
2023/04/24 05:12:44;;;;;;;10.00;8.65;;;11.80;99.90;;;;;;2092159;28;20032;-69
2023/04/24 05:13:44;;;;;;;11.40;9.15;;;11.80;99.90;;;;;;2093192;28;20029;-69
2023/04/24 05:14:45;;;;;;;9.05;8.15;;;11.90;99.90;;;;;;2089774;28;20100;-70